sensor_id;sensor_type;location;lat;lon;timestamp;P1;durP1;ratioP1;P2;durP2;ratioP2
8177;SDS011;4130;48.740;9.132;2023-03-01T00:00:53;13.77;;;8.90;;
8177;SDS011;4130;48.740;9.132;2023-03-01T00:03:20;17.37;;;8.70;;
8177;SDS011;4130;48.740;9.132;2023-03-01T00:05:47;12.60;;;8.27;;
8177;SDS011;4130;48.740;9.132;2023-03-01T00:08:14;13.83;;;8.57;;
8177;SDS011;4130;48.740;9.132;2023-03-01T00:10:40;17.07;;;8.43;;
8177;SDS011;4130;48.740;9.132;2023-03-01T00:13:09;15.43;;;8.33;;
8177;SDS011;4130;48.740;9.132;2023-03-01T00:15:37;13.30;;;7.80;;
8177;SDS011;4130;48.740;9.132;2023-03-01T00:18:05;12.63;;;8.13;;
8177;SDS011;4130;48.740;9.132;2023-03-01T00:20:31;12.73;;;7.80;;
8177;SDS011;4130;48.740;9.132;2023-03-01T00:22:58;13.90;;;8.83;;
8177;SDS011;4130;48.740;9.132;2023-03-01T00:25:25;13.20;;;8.03;;
8177;SDS011;4130;48.740;9.132;2023-03-01T00:27:52;12.57;;;8.17;;
8177;SDS011;4130;48.740;9.132;2023-03-01T00:30:20;15.27;;;8.07;;
8177;SDS011;4130;48.740;9.132;2023-03-01T00:32:46;13.33;;;8.33;;
8177;SDS011;4130;48.740;9.132;2023-03-01T00:35:13;15.63;;;8.53;;
8177;SDS011;4130;48.740;9.132;2023-03-01T00:37:40;13.80;;;8.43;;
8177;SDS011;4130;48.740;9.132;2023-03-01T00:40:07;14.70;;;8.73;;
8177;SDS011;4130;48.740;9.132;2023-03-01T00:42:35;16.33;;;8.90;;
8177;SDS011;4130;48.740;9.132;2023-03-01T00:45:02;12.30;;;7.77;;
8177;SDS011;4130;48.740;9.132;2023-03-01T00:47:30;14.60;;;8.33;;
8177;SDS011;4130;48.740;9.132;2023-03-01T00:49:57;13.30;;;8.50;;
8177;SDS011;4130;48.740;9.132;2023-03-01T00:52:24;14.40;;;8.50;;
8177;SDS011;4130;48.740;9.132;2023-03-01T00:54:51;13.30;;;8.50;;
8177;SDS011;4130;48.740;9.132;2023-03-01T00:57:18;13.70;;;7.93;;
8177;SDS011;4130;48.740;9.132;2023-03-01T00:59:45;11.57;;;8.03;;
8177;SDS011;4130;48.740;9.132;2023-03-01T01:02:12;14.23;;;8.97;;
8177;SDS011;4130;48.740;9.132;2023-03-01T01:04:40;14.73;;;8.07;;
8177;SDS011;4130;48.740;9.132;2023-03-01T01:07:07;12.07;;;8.37;;
8177;SDS011;4130;48.740;9.132;2023-03-01T01:09:33;14.77;;;7.90;;
8177;SDS011;4130;48.740;9.132;2023-03-01T01:12:00;15.07;;;9.20;;
8177;SDS011;4130;48.740;9.132;2023-03-01T01:14:27;11.90;;;7.73;;
8177;SDS011;4130;48.740;9.132;2023-03-01T01:16:54;15.17;;;8.43;;
8177;SDS011;4130;48.740;9.132;2023-03-01T01:19:21;14.43;;;8.27;;
8177;SDS011;4130;48.740;9.132;2023-03-01T01:21:49;12.67;;;7.87;;
8177;SDS011;4130;48.740;9.132;2023-03-01T01:24:16;12.37;;;8.00;;
8177;SDS011;4130;48.740;9.132;2023-03-01T01:26:43;13.40;;;8.20;;
8177;SDS011;4130;48.740;9.132;2023-03-01T01:29:11;12.63;;;7.73;;
8177;SDS011;4130;48.740;9.132;2023-03-01T01:31:39;11.00;;;7.53;;
8177;SDS011;4130;48.740;9.132;2023-03-01T01:34:07;11.07;;;7.47;;
8177;SDS011;4130;48.740;9.132;2023-03-01T01:36:38;10.40;;;7.33;;
8177;SDS011;4130;48.740;9.132;2023-03-01T01:39:07;14.37;;;7.63;;
8177;SDS011;4130;48.740;9.132;2023-03-01T01:41:38;10.97;;;7.50;;
8177;SDS011;4130;48.740;9.132;2023-03-01T01:44:10;12.57;;;7.53;;
8177;SDS011;4130;48.740;9.132;2023-03-01T01:46:39;13.03;;;7.03;;
8177;SDS011;4130;48.740;9.132;2023-03-01T01:49:11;12.67;;;8.00;;
8177;SDS011;4130;48.740;9.132;2023-03-01T01:51:45;13.40;;;7.87;;
8177;SDS011;4130;48.740;9.132;2023-03-01T01:54:18;14.03;;;8.00;;
8177;SDS011;4130;48.740;9.132;2023-03-01T01:56:49;11.10;;;7.53;;
8177;SDS011;4130;48.740;9.132;2023-03-01T01:59:21;13.23;;;7.53;;
8177;SDS011;4130;48.740;9.132;2023-03-01T02:01:50;13.13;;;7.73;;
8177;SDS011;4130;48.740;9.132;2023-03-01T02:04:16;13.47;;;6.93;;
8177;SDS011;4130;48.740;9.132;2023-03-01T02:06:45;16.57;;;8.93;;
8177;SDS011;4130;48.740;9.132;2023-03-01T02:09:24;12.87;;;7.83;;
8177;SDS011;4130;48.740;9.132;2023-03-01T02:11:52;12.53;;;7.80;;
8177;SDS011;4130;48.740;9.132;2023-03-01T02:14:20;15.20;;;7.73;;
8177;SDS011;4130;48.740;9.132;2023-03-01T02:16:46;14.57;;;8.73;;
8177;SDS011;4130;48.740;9.132;2023-03-01T02:19:16;14.33;;;8.23;;
8177;SDS011;4130;48.740;9.132;2023-03-01T02:21:55;11.87;;;7.83;;
8177;SDS011;4130;48.740;9.132;2023-03-01T02:24:35;13.57;;;8.33;;
8177;SDS011;4130;48.740;9.132;2023-03-01T02:27:10;13.40;;;8.27;;
8177;SDS011;4130;48.740;9.132;2023-03-01T02:29:39;14.53;;;8.17;;
8177;SDS011;4130;48.740;9.132;2023-03-01T02:32:08;12.00;;;8.00;;
8177;SDS011;4130;48.740;9.132;2023-03-01T02:34:36;12.10;;;8.20;;
8177;SDS011;4130;48.740;9.132;2023-03-01T02:37:04;10.57;;;7.07;;
8177;SDS011;4130;48.740;9.132;2023-03-01T02:39:36;17.07;;;8.47;;
8177;SDS011;4130;48.740;9.132;2023-03-01T02:42:07;13.53;;;7.93;;
8177;SDS011;4130;48.740;9.132;2023-03-01T02:44:40;16.00;;;8.53;;
8177;SDS011;4130;48.740;9.132;2023-03-01T02:47:06;15.63;;;9.03;;
8177;SDS011;4130;48.740;9.132;2023-03-01T02:49:34;12.43;;;7.60;;
8177;SDS011;4130;48.740;9.132;2023-03-01T02:52:12;12.20;;;7.70;;
8177;SDS011;4130;48.740;9.132;2023-03-01T02:54:48;13.67;;;7.43;;
8177;SDS011;4130;48.740;9.132;2023-03-01T02:57:21;12.13;;;7.63;;
8177;SDS011;4130;48.740;9.132;2023-03-01T02:59:50;13.00;;;8.27;;
8177;SDS011;4130;48.740;9.132;2023-03-01T03:02:21;15.87;;;7.50;;
8177;SDS011;4130;48.740;9.132;2023-03-01T03:05:01;13.43;;;8.07;;
8177;SDS011;4130;48.740;9.132;2023-03-01T03:07:31;11.53;;;7.70;;
8177;SDS011;4130;48.740;9.132;2023-03-01T03:09:58;10.67;;;7.67;;
8177;SDS011;4130;48.740;9.132;2023-03-01T03:12:25;12.60;;;7.30;;
8177;SDS011;4130;48.740;9.132;2023-03-01T03:14:53;12.50;;;7.93;;
8177;SDS011;4130;48.740;9.132;2023-03-01T03:17:19;13.03;;;7.97;;
8177;SDS011;4130;48.740;9.132;2023-03-01T03:19:46;14.97;;;8.43;;
8177;SDS011;4130;48.740;9.132;2023-03-01T03:22:13;11.03;;;7.00;;
8177;SDS011;4130;48.740;9.132;2023-03-01T03:24:40;12.27;;;7.90;;
8177;SDS011;4130;48.740;9.132;2023-03-01T03:27:07;12.70;;;8.40;;
8177;SDS011;4130;48.740;9.132;2023-03-01T03:29:34;12.07;;;7.37;;
8177;SDS011;4130;48.740;9.132;2023-03-01T03:32:02;12.43;;;7.53;;
8177;SDS011;4130;48.740;9.132;2023-03-01T03:34:29;11.50;;;7.27;;
8177;SDS011;4130;48.740;9.132;2023-03-01T03:36:56;10.73;;;7.17;;
8177;SDS011;4130;48.740;9.132;2023-03-01T03:39:24;13.50;;;7.50;;
8177;SDS011;4130;48.740;9.132;2023-03-01T03:41:52;12.23;;;7.33;;
8177;SDS011;4130;48.740;9.132;2023-03-01T03:44:18;12.03;;;7.50;;
8177;SDS011;4130;48.740;9.132;2023-03-01T03:46:45;11.70;;;8.03;;
8177;SDS011;4130;48.740;9.132;2023-03-01T03:49:13;11.70;;;8.27;;
8177;SDS011;4130;48.740;9.132;2023-03-01T03:51:40;13.93;;;7.90;;
8177;SDS011;4130;48.740;9.132;2023-03-01T03:54:07;15.20;;;7.83;;
8177;SDS011;4130;48.740;9.132;2023-03-01T03:56:34;13.23;;;8.07;;
8177;SDS011;4130;48.740;9.132;2023-03-01T03:59:00;14.93;;;8.00;;
8177;SDS011;4130;48.740;9.132;2023-03-01T04:01:27;11.93;;;7.80;;
8177;SDS011;4130;48.740;9.132;2023-03-01T04:03:58;15.53;;;7.83;;
8177;SDS011;4130;48.740;9.132;2023-03-01T04:06:30;14.43;;;7.60;;
8177;SDS011;4130;48.740;9.132;2023-03-01T04:08:57;10.57;;;7.47;;
8177;SDS011;4130;48.740;9.132;2023-03-01T04:11:25;13.20;;;8.10;;
8177;SDS011;4130;48.740;9.132;2023-03-01T04:13:53;12.43;;;8.40;;
8177;SDS011;4130;48.740;9.132;2023-03-01T04:16:21;15.27;;;8.70;;
8177;SDS011;4130;48.740;9.132;2023-03-01T04:18:48;13.93;;;8.07;;
8177;SDS011;4130;48.740;9.132;2023-03-01T04:21:15;13.90;;;8.57;;
8177;SDS011;4130;48.740;9.132;2023-03-01T04:23:43;11.43;;;7.97;;
8177;SDS011;4130;48.740;9.132;2023-03-01T04:26:10;12.47;;;8.43;;
8177;SDS011;4130;48.740;9.132;2023-03-01T04:28:38;12.67;;;8.10;;
8177;SDS011;4130;48.740;9.132;2023-03-01T04:31:08;14.73;;;8.13;;
8177;SDS011;4130;48.740;9.132;2023-03-01T04:33:39;13.17;;;8.13;;
8177;SDS011;4130;48.740;9.132;2023-03-01T04:36:06;12.00;;;7.70;;
8177;SDS011;4130;48.740;9.132;2023-03-01T04:38:34;13.97;;;8.67;;
8177;SDS011;4130;48.740;9.132;2023-03-01T04:41:03;13.80;;;8.80;;
8177;SDS011;4130;48.740;9.132;2023-03-01T04:43:30;15.30;;;9.07;;
8177;SDS011;4130;48.740;9.132;2023-03-01T04:46:02;15.13;;;8.37;;
8177;SDS011;4130;48.740;9.132;2023-03-01T04:48:31;16.07;;;9.10;;
8177;SDS011;4130;48.740;9.132;2023-03-01T04:50:58;14.07;;;8.47;;
8177;SDS011;4130;48.740;9.132;2023-03-01T04:53:26;17.03;;;8.93;;
8177;SDS011;4130;48.740;9.132;2023-03-01T04:55:53;12.67;;;8.17;;
8177;SDS011;4130;48.740;9.132;2023-03-01T04:58:21;12.13;;;7.93;;
8177;SDS011;4130;48.740;9.132;2023-03-01T05:00:49;12.80;;;7.73;;
8177;SDS011;4130;48.740;9.132;2023-03-01T05:03:15;15.17;;;8.50;;
8177;SDS011;4130;48.740;9.132;2023-03-01T05:05:43;16.13;;;8.50;;
8177;SDS011;4130;48.740;9.132;2023-03-01T05:08:12;14.13;;;8.27;;
8177;SDS011;4130;48.740;9.132;2023-03-01T05:10:42;12.20;;;8.10;;
8177;SDS011;4130;48.740;9.132;2023-03-01T05:13:10;13.10;;;8.30;;
8177;SDS011;4130;48.740;9.132;2023-03-01T05:15:41;11.40;;;7.17;;
8177;SDS011;4130;48.740;9.132;2023-03-01T05:18:08;14.47;;;8.53;;
8177;SDS011;4130;48.740;9.132;2023-03-01T05:20:36;12.23;;;8.07;;
8177;SDS011;4130;48.740;9.132;2023-03-01T05:23:03;11.87;;;7.30;;
8177;SDS011;4130;48.740;9.132;2023-03-01T05:25:31;15.53;;;8.60;;
8177;SDS011;4130;48.740;9.132;2023-03-01T05:27:58;16.80;;;10.03;;
8177;SDS011;4130;48.740;9.132;2023-03-01T05:30:29;14.33;;;8.40;;
8177;SDS011;4130;48.740;9.132;2023-03-01T05:32:57;14.47;;;8.17;;
8177;SDS011;4130;48.740;9.132;2023-03-01T05:35:24;13.93;;;8.80;;
8177;SDS011;4130;48.740;9.132;2023-03-01T05:37:51;14.53;;;8.33;;
8177;SDS011;4130;48.740;9.132;2023-03-01T05:40:19;13.60;;;8.47;;
8177;SDS011;4130;48.740;9.132;2023-03-01T05:42:48;15.30;;;8.67;;
8177;SDS011;4130;48.740;9.132;2023-03-01T05:45:16;15.43;;;8.03;;
8177;SDS011;4130;48.740;9.132;2023-03-01T05:47:44;15.43;;;8.43;;
8177;SDS011;4130;48.740;9.132;2023-03-01T05:50:14;13.70;;;8.63;;
8177;SDS011;4130;48.740;9.132;2023-03-01T05:52:44;12.77;;;8.33;;
8177;SDS011;4130;48.740;9.132;2023-03-01T05:55:13;13.57;;;8.20;;
8177;SDS011;4130;48.740;9.132;2023-03-01T05:57:40;15.53;;;8.53;;
8177;SDS011;4130;48.740;9.132;2023-03-01T06:00:07;14.17;;;9.13;;
8177;SDS011;4130;48.740;9.132;2023-03-01T06:02:35;12.53;;;8.20;;
8177;SDS011;4130;48.740;9.132;2023-03-01T06:05:02;15.37;;;8.50;;
8177;SDS011;4130;48.740;9.132;2023-03-01T06:07:31;12.37;;;8.30;;
8177;SDS011;4130;48.740;9.132;2023-03-01T06:09:58;11.83;;;8.10;;
8177;SDS011;4130;48.740;9.132;2023-03-01T06:12:24;13.63;;;8.50;;
8177;SDS011;4130;48.740;9.132;2023-03-01T06:14:51;16.00;;;9.17;;
8177;SDS011;4130;48.740;9.132;2023-03-01T06:17:18;13.20;;;8.67;;
8177;SDS011;4130;48.740;9.132;2023-03-01T06:19:44;16.07;;;9.30;;
8177;SDS011;4130;48.740;9.132;2023-03-01T06:22:12;15.33;;;8.30;;
8177;SDS011;4130;48.740;9.132;2023-03-01T06:24:40;16.27;;;9.27;;
8177;SDS011;4130;48.740;9.132;2023-03-01T06:27:07;14.33;;;8.43;;
8177;SDS011;4130;48.740;9.132;2023-03-01T06:29:34;17.50;;;8.77;;
8177;SDS011;4130;48.740;9.132;2023-03-01T06:32:01;15.97;;;9.23;;
8177;SDS011;4130;48.740;9.132;2023-03-01T06:34:28;13.00;;;8.73;;
8177;SDS011;4130;48.740;9.132;2023-03-01T06:36:55;13.17;;;8.53;;
8177;SDS011;4130;48.740;9.132;2023-03-01T06:39:22;15.30;;;8.37;;
8177;SDS011;4130;48.740;9.132;2023-03-01T06:41:50;13.23;;;8.40;;
8177;SDS011;4130;48.740;9.132;2023-03-01T06:44:17;15.03;;;8.73;;
8177;SDS011;4130;48.740;9.132;2023-03-01T06:46:43;11.47;;;8.10;;
8177;SDS011;4130;48.740;9.132;2023-03-01T06:49:10;12.93;;;8.57;;
8177;SDS011;4130;48.740;9.132;2023-03-01T06:51:37;15.27;;;9.23;;
8177;SDS011;4130;48.740;9.132;2023-03-01T06:54:04;14.17;;;8.50;;
8177;SDS011;4130;48.740;9.132;2023-03-01T06:56:31;14.43;;;9.23;;
8177;SDS011;4130;48.740;9.132;2023-03-01T06:58:59;15.67;;;8.80;;
8177;SDS011;4130;48.740;9.132;2023-03-01T07:01:27;12.53;;;8.27;;
8177;SDS011;4130;48.740;9.132;2023-03-01T07:03:54;12.00;;;7.77;;
8177;SDS011;4130;48.740;9.132;2023-03-01T07:06:21;18.70;;;8.20;;
8177;SDS011;4130;48.740;9.132;2023-03-01T07:08:49;12.23;;;8.23;;
8177;SDS011;4130;48.740;9.132;2023-03-01T07:11:15;14.53;;;8.30;;
8177;SDS011;4130;48.740;9.132;2023-03-01T07:13:42;14.90;;;8.27;;
8177;SDS011;4130;48.740;9.132;2023-03-01T07:16:10;17.50;;;9.40;;
8177;SDS011;4130;48.740;9.132;2023-03-01T07:18:37;13.40;;;8.40;;
8177;SDS011;4130;48.740;9.132;2023-03-01T07:21:04;14.63;;;9.50;;
8177;SDS011;4130;48.740;9.132;2023-03-01T07:23:31;16.83;;;9.37;;
8177;SDS011;4130;48.740;9.132;2023-03-01T07:25:58;12.90;;;8.67;;
8177;SDS011;4130;48.740;9.132;2023-03-01T07:28:25;14.03;;;8.80;;
8177;SDS011;4130;48.740;9.132;2023-03-01T07:30:52;14.53;;;8.93;;
8177;SDS011;4130;48.740;9.132;2023-03-01T07:33:20;15.10;;;10.80;;
8177;SDS011;4130;48.740;9.132;2023-03-01T07:35:47;14.73;;;8.60;;
8177;SDS011;4130;48.740;9.132;2023-03-01T07:38:14;17.80;;;8.93;;
8177;SDS011;4130;48.740;9.132;2023-03-01T07:40:41;17.20;;;9.80;;
8177;SDS011;4130;48.740;9.132;2023-03-01T07:43:07;15.63;;;8.90;;
8177;SDS011;4130;48.740;9.132;2023-03-01T07:45:34;14.50;;;8.90;;
8177;SDS011;4130;48.740;9.132;2023-03-01T07:48:01;15.87;;;9.17;;
8177;SDS011;4130;48.740;9.132;2023-03-01T07:50:29;16.17;;;9.17;;
8177;SDS011;4130;48.740;9.132;2023-03-01T07:52:56;14.13;;;9.00;;
8177;SDS011;4130;48.740;9.132;2023-03-01T07:55:22;16.80;;;9.57;;
8177;SDS011;4130;48.740;9.132;2023-03-01T07:57:49;19.90;;;9.73;;
8177;SDS011;4130;48.740;9.132;2023-03-01T08:00:16;16.10;;;10.13;;
8177;SDS011;4130;48.740;9.132;2023-03-01T08:02:43;14.07;;;9.53;;
8177;SDS011;4130;48.740;9.132;2023-03-01T08:05:10;18.73;;;9.77;;
8177;SDS011;4130;48.740;9.132;2023-03-01T08:07:38;17.57;;;9.93;;
8177;SDS011;4130;48.740;9.132;2023-03-01T08:10:05;13.37;;;9.17;;
8177;SDS011;4130;48.740;9.132;2023-03-01T08:12:32;17.50;;;9.27;;
8177;SDS011;4130;48.740;9.132;2023-03-01T08:14:59;17.33;;;9.97;;
8177;SDS011;4130;48.740;9.132;2023-03-01T08:17:26;15.97;;;9.80;;
8177;SDS011;4130;48.740;9.132;2023-03-01T08:19:53;15.53;;;9.27;;
8177;SDS011;4130;48.740;9.132;2023-03-01T08:22:19;17.20;;;10.03;;
8177;SDS011;4130;48.740;9.132;2023-03-01T08:24:47;17.90;;;10.30;;
8177;SDS011;4130;48.740;9.132;2023-03-01T08:27:14;17.47;;;9.70;;
8177;SDS011;4130;48.740;9.132;2023-03-01T08:29:41;17.47;;;10.00;;
8177;SDS011;4130;48.740;9.132;2023-03-01T08:32:08;14.87;;;9.27;;
8177;SDS011;4130;48.740;9.132;2023-03-01T08:34:35;16.87;;;10.20;;
8177;SDS011;4130;48.740;9.132;2023-03-01T08:37:02;14.77;;;9.80;;
8177;SDS011;4130;48.740;9.132;2023-03-01T08:39:28;19.00;;;10.63;;
8177;SDS011;4130;48.740;9.132;2023-03-01T08:41:57;15.97;;;10.30;;
8177;SDS011;4130;48.740;9.132;2023-03-01T08:44:23;17.70;;;10.00;;
8177;SDS011;4130;48.740;9.132;2023-03-01T08:46:50;15.87;;;9.73;;
8177;SDS011;4130;48.740;9.132;2023-03-01T08:49:18;16.83;;;10.20;;
8177;SDS011;4130;48.740;9.132;2023-03-01T08:51:46;16.33;;;9.93;;
8177;SDS011;4130;48.740;9.132;2023-03-01T08:54:14;16.03;;;10.20;;
8177;SDS011;4130;48.740;9.132;2023-03-01T08:56:43;16.80;;;9.43;;
8177;SDS011;4130;48.740;9.132;2023-03-01T08:59:11;23.03;;;10.77;;
8177;SDS011;4130;48.740;9.132;2023-03-01T09:01:38;18.77;;;11.03;;
8177;SDS011;4130;48.740;9.132;2023-03-01T09:04:08;15.67;;;9.77;;
8177;SDS011;4130;48.740;9.132;2023-03-01T09:06:35;17.47;;;10.23;;
8177;SDS011;4130;48.740;9.132;2023-03-01T09:09:03;16.83;;;10.27;;
8177;SDS011;4130;48.740;9.132;2023-03-01T09:11:31;15.50;;;9.83;;
8177;SDS011;4130;48.740;9.132;2023-03-01T09:13:58;18.00;;;8.90;;
8177;SDS011;4130;48.740;9.132;2023-03-01T09:16:26;16.47;;;9.73;;
8177;SDS011;4130;48.740;9.132;2023-03-01T09:18:54;13.10;;;9.10;;
8177;SDS011;4130;48.740;9.132;2023-03-01T09:21:22;16.10;;;9.83;;
8177;SDS011;4130;48.740;9.132;2023-03-01T09:23:49;18.17;;;10.83;;
8177;SDS011;4130;48.740;9.132;2023-03-01T09:26:17;15.43;;;9.50;;
8177;SDS011;4130;48.740;9.132;2023-03-01T09:28:46;16.03;;;9.70;;
8177;SDS011;4130;48.740;9.132;2023-03-01T09:31:14;14.73;;;9.20;;
8177;SDS011;4130;48.740;9.132;2023-03-01T09:33:45;16.80;;;9.53;;
8177;SDS011;4130;48.740;9.132;2023-03-01T09:36:14;18.13;;;10.47;;
8177;SDS011;4130;48.740;9.132;2023-03-01T09:38:42;16.17;;;9.17;;
8177;SDS011;4130;48.740;9.132;2023-03-01T09:41:09;16.50;;;9.80;;
8177;SDS011;4130;48.740;9.132;2023-03-01T09:43:46;15.20;;;10.00;;
8177;SDS011;4130;48.740;9.132;2023-03-01T09:46:19;14.20;;;9.57;;
8177;SDS011;4130;48.740;9.132;2023-03-01T09:48:50;14.57;;;9.17;;
8177;SDS011;4130;48.740;9.132;2023-03-01T09:51:23;14.63;;;9.83;;
8177;SDS011;4130;48.740;9.132;2023-03-01T09:53:52;18.87;;;9.90;;
8177;SDS011;4130;48.740;9.132;2023-03-01T09:56:22;16.13;;;9.70;;
8177;SDS011;4130;48.740;9.132;2023-03-01T09:58:54;16.77;;;10.53;;
8177;SDS011;4130;48.740;9.132;2023-03-01T10:01:28;17.83;;;10.00;;
8177;SDS011;4130;48.740;9.132;2023-03-01T10:04:17;16.80;;;9.77;;
8177;SDS011;4130;48.740;9.132;2023-03-01T10:06:56;16.33;;;10.00;;
8177;SDS011;4130;48.740;9.132;2023-03-01T10:09:32;16.33;;;9.50;;
8177;SDS011;4130;48.740;9.132;2023-03-01T10:12:01;16.53;;;9.83;;
8177;SDS011;4130;48.740;9.132;2023-03-01T10:14:31;17.17;;;9.77;;
8177;SDS011;4130;48.740;9.132;2023-03-01T10:17:01;14.97;;;9.43;;
8177;SDS011;4130;48.740;9.132;2023-03-01T10:19:32;13.07;;;9.37;;
8177;SDS011;4130;48.740;9.132;2023-03-01T10:22:05;14.40;;;9.73;;
8177;SDS011;4130;48.740;9.132;2023-03-01T10:24:39;19.57;;;9.47;;
8177;SDS011;4130;48.740;9.132;2023-03-01T10:27:07;14.43;;;9.13;;
8177;SDS011;4130;48.740;9.132;2023-03-01T10:29:39;15.93;;;9.53;;
8177;SDS011;4130;48.740;9.132;2023-03-01T10:32:11;15.93;;;9.73;;
8177;SDS011;4130;48.740;9.132;2023-03-01T10:34:39;13.37;;;9.23;;
8177;SDS011;4130;48.740;9.132;2023-03-01T10:37:10;14.70;;;9.40;;
8177;SDS011;4130;48.740;9.132;2023-03-01T10:39:54;14.73;;;9.03;;
8177;SDS011;4130;48.740;9.132;2023-03-01T10:42:24;14.77;;;9.20;;
8177;SDS011;4130;48.740;9.132;2023-03-01T10:44:53;16.60;;;9.17;;
8177;SDS011;4130;48.740;9.132;2023-03-01T10:47:21;19.80;;;10.07;;
8177;SDS011;4130;48.740;9.132;2023-03-01T10:49:54;14.63;;;9.57;;
8177;SDS011;4130;48.740;9.132;2023-03-01T10:52:24;15.03;;;9.93;;
8177;SDS011;4130;48.740;9.132;2023-03-01T10:54:59;16.13;;;9.07;;
8177;SDS011;4130;48.740;9.132;2023-03-01T10:57:33;14.93;;;9.37;;
8177;SDS011;4130;48.740;9.132;2023-03-01T11:00:14;16.57;;;9.17;;
8177;SDS011;4130;48.740;9.132;2023-03-01T11:02:47;13.17;;;7.83;;
8177;SDS011;4130;48.740;9.132;2023-03-01T11:05:21;16.43;;;9.60;;
8177;SDS011;4130;48.740;9.132;2023-03-01T11:07:50;17.27;;;9.90;;
8177;SDS011;4130;48.740;9.132;2023-03-01T11:10:19;14.60;;;8.60;;
8177;SDS011;4130;48.740;9.132;2023-03-01T11:12:47;13.73;;;8.37;;
8177;SDS011;4130;48.740;9.132;2023-03-01T11:15:21;12.63;;;8.97;;
8177;SDS011;4130;48.740;9.132;2023-03-01T11:17:50;14.00;;;9.20;;
8177;SDS011;4130;48.740;9.132;2023-03-01T11:20:23;17.73;;;9.43;;
8177;SDS011;4130;48.740;9.132;2023-03-01T11:22:53;14.07;;;9.10;;
8177;SDS011;4130;48.740;9.132;2023-03-01T11:25:23;14.60;;;8.57;;
8177;SDS011;4130;48.740;9.132;2023-03-01T11:27:52;18.30;;;9.27;;
8177;SDS011;4130;48.740;9.132;2023-03-01T11:30:21;13.30;;;8.63;;
8177;SDS011;4130;48.740;9.132;2023-03-01T11:32:56;13.07;;;8.30;;
8177;SDS011;4130;48.740;9.132;2023-03-01T11:35:30;12.67;;;8.53;;
8177;SDS011;4130;48.740;9.132;2023-03-01T11:38:03;13.33;;;9.07;;
8177;SDS011;4130;48.740;9.132;2023-03-01T11:40:41;12.83;;;8.93;;
8177;SDS011;4130;48.740;9.132;2023-03-01T11:43:14;14.03;;;8.87;;
8177;SDS011;4130;48.740;9.132;2023-03-01T11:45:55;13.50;;;9.10;;
8177;SDS011;4130;48.740;9.132;2023-03-01T11:48:51;14.63;;;9.00;;
8177;SDS011;4130;48.740;9.132;2023-03-01T11:51:30;13.20;;;9.03;;
8177;SDS011;4130;48.740;9.132;2023-03-01T11:54:13;14.67;;;9.27;;
8177;SDS011;4130;48.740;9.132;2023-03-01T11:56:54;12.67;;;9.03;;
8177;SDS011;4130;48.740;9.132;2023-03-01T11:59:44;13.40;;;8.93;;
8177;SDS011;4130;48.740;9.132;2023-03-01T12:02:50;14.33;;;8.67;;
8177;SDS011;4130;48.740;9.132;2023-03-01T12:05:46;14.23;;;9.17;;
8177;SDS011;4130;48.740;9.132;2023-03-01T12:08:31;13.30;;;8.47;;
8177;SDS011;4130;48.740;9.132;2023-03-01T12:11:03;15.17;;;9.77;;
8177;SDS011;4130;48.740;9.132;2023-03-01T12:13:58;17.70;;;9.23;;
8177;SDS011;4130;48.740;9.132;2023-03-01T12:16:52;14.83;;;9.63;;
8177;SDS011;4130;48.740;9.132;2023-03-01T12:19:49;17.07;;;8.50;;
8177;SDS011;4130;48.740;9.132;2023-03-01T12:22:44;13.20;;;9.27;;
8177;SDS011;4130;48.740;9.132;2023-03-01T12:25:27;14.73;;;8.97;;
8177;SDS011;4130;48.740;9.132;2023-03-01T12:28:12;15.87;;;9.33;;
8177;SDS011;4130;48.740;9.132;2023-03-01T12:31:23;15.47;;;9.20;;
8177;SDS011;4130;48.740;9.132;2023-03-01T12:34:12;17.73;;;8.90;;
8177;SDS011;4130;48.740;9.132;2023-03-01T12:36:53;14.43;;;9.10;;
8177;SDS011;4130;48.740;9.132;2023-03-01T12:39:36;12.67;;;8.93;;
8177;SDS011;4130;48.740;9.132;2023-03-01T12:42:20;15.87;;;9.03;;
8177;SDS011;4130;48.740;9.132;2023-03-01T12:44:59;13.90;;;8.47;;
8177;SDS011;4130;48.740;9.132;2023-03-01T12:47:51;14.57;;;9.00;;
8177;SDS011;4130;48.740;9.132;2023-03-01T12:50:32;14.83;;;8.60;;
8177;SDS011;4130;48.740;9.132;2023-03-01T12:53:05;11.60;;;8.07;;
8177;SDS011;4130;48.740;9.132;2023-03-01T12:55:41;14.83;;;9.13;;
8177;SDS011;4130;48.740;9.132;2023-03-01T12:58:12;11.23;;;8.33;;
8177;SDS011;4130;48.740;9.132;2023-03-01T13:00:52;12.53;;;8.03;;
8177;SDS011;4130;48.740;9.132;2023-03-01T13:03:31;13.33;;;8.00;;
8177;SDS011;4130;48.740;9.132;2023-03-01T13:06:10;13.97;;;8.07;;
8177;SDS011;4130;48.740;9.132;2023-03-01T13:08:42;12.57;;;7.83;;
8177;SDS011;4130;48.740;9.132;2023-03-01T13:11:15;11.17;;;7.50;;
8177;SDS011;4130;48.740;9.132;2023-03-01T13:13:45;11.67;;;8.13;;
8177;SDS011;4130;48.740;9.132;2023-03-01T13:16:20;16.13;;;8.20;;
8177;SDS011;4130;48.740;9.132;2023-03-01T13:19:08;10.97;;;7.30;;
8177;SDS011;4130;48.740;9.132;2023-03-01T13:21:40;11.00;;;8.07;;
8177;SDS011;4130;48.740;9.132;2023-03-01T13:29:51;12.10;;;8.10;;
8177;SDS011;4130;48.740;9.132;2023-03-01T13:32:20;13.90;;;8.47;;
8177;SDS011;4130;48.740;9.132;2023-03-01T13:34:52;10.90;;;7.60;;
8177;SDS011;4130;48.740;9.132;2023-03-01T13:37:28;11.43;;;8.07;;
8177;SDS011;4130;48.740;9.132;2023-03-01T13:40:03;11.33;;;7.20;;
8177;SDS011;4130;48.740;9.132;2023-03-01T13:42:48;12.40;;;7.83;;
8177;SDS011;4130;48.740;9.132;2023-03-01T13:45:18;10.20;;;7.20;;
8177;SDS011;4130;48.740;9.132;2023-03-01T13:47:49;10.30;;;6.77;;
8177;SDS011;4130;48.740;9.132;2023-03-01T13:50:20;15.07;;;8.37;;
8177;SDS011;4130;48.740;9.132;2023-03-01T13:52:50;11.33;;;7.63;;
8177;SDS011;4130;48.740;9.132;2023-03-01T13:55:23;13.43;;;8.27;;
8177;SDS011;4130;48.740;9.132;2023-03-01T13:57:53;11.10;;;7.97;;
8177;SDS011;4130;48.740;9.132;2023-03-01T14:00:32;12.57;;;8.53;;
8177;SDS011;4130;48.740;9.132;2023-03-01T14:03:02;13.47;;;8.47;;
8177;SDS011;4130;48.740;9.132;2023-03-01T14:05:35;11.30;;;7.93;;
8177;SDS011;4130;48.740;9.132;2023-03-01T14:08:03;12.00;;;8.27;;
8177;SDS011;4130;48.740;9.132;2023-03-01T14:10:32;14.90;;;8.57;;
8177;SDS011;4130;48.740;9.132;2023-03-01T14:13:17;13.87;;;8.37;;
8177;SDS011;4130;48.740;9.132;2023-03-01T14:16:02;13.57;;;9.17;;
8177;SDS011;4130;48.740;9.132;2023-03-01T14:18:39;13.00;;;8.93;;
8177;SDS011;4130;48.740;9.132;2023-03-01T14:21:12;15.57;;;9.13;;
8177;SDS011;4130;48.740;9.132;2023-03-01T14:23:40;13.93;;;9.73;;
8177;SDS011;4130;48.740;9.132;2023-03-01T14:26:07;14.13;;;9.07;;
8177;SDS011;4130;48.740;9.132;2023-03-01T14:28:37;13.87;;;9.07;;
8177;SDS011;4130;48.740;9.132;2023-03-01T14:34:01;13.73;;;9.40;;
8177;SDS011;4130;48.740;9.132;2023-03-01T14:36:28;15.23;;;10.23;;
8177;SDS011;4130;48.740;9.132;2023-03-01T14:38:57;13.87;;;9.27;;
8177;SDS011;4130;48.740;9.132;2023-03-01T14:41:29;14.97;;;9.20;;
8177;SDS011;4130;48.740;9.132;2023-03-01T14:44:00;16.80;;;9.90;;
8177;SDS011;4130;48.740;9.132;2023-03-01T14:46:30;14.47;;;9.30;;
8177;SDS011;4130;48.740;9.132;2023-03-01T14:49:02;13.53;;;9.27;;
8177;SDS011;4130;48.740;9.132;2023-03-01T14:51:30;17.00;;;10.20;;
8177;SDS011;4130;48.740;9.132;2023-03-01T14:54:00;15.37;;;9.83;;
8177;SDS011;4130;48.740;9.132;2023-03-01T14:56:27;13.03;;;9.27;;
8177;SDS011;4130;48.740;9.132;2023-03-01T14:59:09;15.90;;;10.07;;
8177;SDS011;4130;48.740;9.132;2023-03-01T15:01:39;11.40;;;8.53;;
8177;SDS011;4130;48.740;9.132;2023-03-01T15:04:08;15.40;;;9.90;;
8177;SDS011;4130;48.740;9.132;2023-03-01T15:06:38;14.13;;;9.87;;
8177;SDS011;4130;48.740;9.132;2023-03-01T15:09:05;15.23;;;9.13;;
8177;SDS011;4130;48.740;9.132;2023-03-01T15:11:37;15.13;;;9.63;;
8177;SDS011;4130;48.740;9.132;2023-03-01T15:17:15;13.27;;;8.37;;
8177;SDS011;4130;48.740;9.132;2023-03-01T15:19:49;15.30;;;8.87;;
8177;SDS011;4130;48.740;9.132;2023-03-01T15:22:15;12.70;;;8.73;;
8177;SDS011;4130;48.740;9.132;2023-03-01T15:24:46;14.93;;;9.50;;
8177;SDS011;4130;48.740;9.132;2023-03-01T15:27:14;14.57;;;9.13;;
8177;SDS011;4130;48.740;9.132;2023-03-01T15:29:47;16.70;;;10.30;;
8177;SDS011;4130;48.740;9.132;2023-03-01T15:32:28;17.23;;;9.83;;